Time;durP1;ratioP1;P1;durP2;ratioP2;P2;SDS_P1;SDS_P2;PMS_P1;PMS_P2;Temp;Humidity;BMP_temperature;BMP_pressure;BME280_temperature;BME280_humidity;BME280_pressure;Samples;Min_cycle;Max_cycle;Signal;HPM_P1;HPM_P2
2021/07/30 00:01:43;;;;;;;;;;;14.70;92.80;;;17.79;79.61;100978.38;4377708;39;96799;-76
2021/07/30 00:04:47;;;;;;;;;;;14.60;92.80;;;17.72;79.79;100980.06;4369153;40;97277;-76
2021/07/30 00:07:51;;;;;;;;;;;14.60;92.80;;;17.70;79.36;100969.56;4347798;40;97495;-76
2021/07/30 00:10:57;;;;;;;;;;;14.60;92.80;;;17.64;79.77;100976.34;4369030;40;97615;-75
2021/07/30 00:14:01;;;;;;;;;;;14.50;92.80;;;17.62;79.48;100969.72;4371541;39;97504;-76
2021/07/30 00:17:06;;;;;;;;;;;14.50;92.80;;;17.60;79.39;100969.28;4371085;40;97452;-76
2021/07/30 00:20:12;;;;;;;;;;;14.50;92.90;;;17.56;79.35;100971.06;4371038;40;96657;-76
2021/07/30 00:23:16;;;;;;;;;;;14.40;92.80;;;17.52;79.61;100959.34;4361318;40;97562;-76
2021/07/30 00:26:22;;;;;;;;;;;14.40;92.80;;;17.52;78.85;100960.13;4361983;40;99692;-76
2021/07/30 00:29:26;;;;;;;;;;;14.30;92.80;;;17.50;79.11;100958.88;4370243;40;97420;-76
2021/07/30 00:32:30;;;;;;;;;;;14.30;92.90;;;17.36;80.17;100966.59;4369815;40;96714;-76
2021/07/30 00:35:35;;;;;;;;;;;14.30;92.90;;;17.41;79.11;100964.47;4370402;40;96663;-76
2021/07/30 00:38:39;;;;;;;;;;;14.30;92.90;;;17.39;79.72;100961.28;4360722;40;96651;-76
2021/07/30 00:41:44;;;;;;;;;;;14.20;92.90;;;17.36;79.75;100953.06;4362004;40;97798;-76
2021/07/30 00:44:48;;;;;;;;;;;14.20;93.00;;;17.33;79.35;100957.22;4360331;40;96845;-76
2021/07/30 00:47:52;;;;;;;;;;;14.20;93.00;;;17.35;79.82;100954.19;4370334;39;97942;-76
2021/07/30 00:50:57;;;;;;;;;;;14.10;93.00;;;17.23;80.31;100950.66;4368595;40;96797;-76
2021/07/30 00:54:01;;;;;;;;;;;14.10;92.90;;;17.26;79.67;100955.41;4362432;40;97685;-76
2021/07/30 00:57:09;;;;;;;;;;;14.10;93.00;;;17.25;79.11;100951.91;4361369;40;97828;-76
2021/07/30 01:00:13;;;;;;;;;;;14.00;93.00;;;17.34;78.64;100953.38;4371634;39;97714;-76
2021/07/30 01:03:16;;;;;;;;;;;14.00;93.00;;;17.31;79.30;100951.31;4379856;39;97540;-76
2021/07/30 01:06:20;;;;;;;;;;;14.00;93.00;;;17.16;79.84;100951.22;4367224;40;98084;-76
2021/07/30 01:09:24;;;;;;;;;;;14.00;93.10;;;17.16;79.30;100961.28;4367647;40;97475;-76
2021/07/30 01:12:29;;;;;;;;;;;14.00;93.10;;;17.09;79.33;100955.63;4377445;39;96742;-76
2021/07/30 01:15:39;;;;;;;;;;;14.00;93.00;;;17.15;79.15;100959.72;4370001;39;97391;-76
2021/07/30 01:18:43;;;;;;;;;;;13.90;93.10;;;17.10;79.94;100957.22;4360321;40;97842;-76
2021/07/30 01:21:49;;;;;;;;;;;13.90;93.10;;;17.10;79.33;100957.22;4362177;40;97808;-75
2021/07/30 01:24:55;;;;;;;;;;;13.90;93.00;;;17.04;79.25;100955.88;4369464;40;97455;-75
2021/07/30 01:28:00;;;;;;;;;;;13.80;93.00;;;17.02;79.91;100953.50;4370581;40;98314;-75
2021/07/30 01:31:07;;;;;;;;;;;13.80;93.00;;;17.08;78.85;100964.88;4370797;40;97474;-75
2021/07/30 01:34:10;;;;;;;;;;;13.80;93.10;;;17.06;79.20;100962.53;4370313;40;97491;-76
2021/07/30 01:37:14;;;;;;;;;;;13.70;93.10;;;16.99;79.29;100967.72;4351235;40;98213;-75
2021/07/30 01:40:21;;;;;;;;;;;13.70;93.10;;;16.93;80.05;100957.44;4337480;40;97678;-76
2021/07/30 01:43:25;;;;;;;;;;;13.70;93.10;;;16.84;79.79;100959.47;4353624;40;97659;-76
2021/07/30 01:46:28;;;;;;;;;;;13.70;93.10;;;16.89;79.52;100956.56;4360022;40;98762;-76
2021/07/30 01:49:32;;;;;;;;;;;13.70;93.10;;;16.86;79.24;100962.66;4369866;39;96818;-76
2021/07/30 01:52:36;;;;;;;;;;;13.60;93.10;;;16.95;79.58;100958.69;4360694;40;96804;-75
2021/07/30 01:55:41;;;;;;;;;;;13.60;93.20;;;16.94;78.63;100959.03;4353692;40;96547;-75
2021/07/30 01:58:45;;;;;;;;;;;13.60;93.20;;;16.90;79.25;100953.50;4351457;40;96937;-76
2021/07/30 02:01:49;;;;;;;;;;;13.60;93.10;;;16.94;78.66;100953.63;4360718;40;97068;-76
2021/07/30 02:04:53;;;;;;;;;;;13.60;93.20;;;16.97;78.50;100951.03;4369372;40;97549;-76
2021/07/30 02:07:57;;;;;;;;;;;13.60;93.20;;;16.82;79.17;100951.69;4378854;39;96872;-76
2021/07/30 02:11:04;;;;;;;;;;;13.60;93.20;;;16.81;79.54;100943.91;4371048;39;97604;-76
2021/07/30 02:14:17;;;;;;;;;;;13.60;93.20;;;16.90;79.34;100948.06;4362235;40;99440;-76
2021/07/30 02:17:21;;;;;;;;;;;13.60;93.20;;;16.88;79.10;100950.34;4362273;40;98566;-76
2021/07/30 02:20:24;;;;;;;;;;;13.50;93.10;;;16.90;79.12;100941.88;4373434;39;97407;-75
2021/07/30 02:23:28;;;;;;;;;;;13.50;93.20;;;16.90;78.62;100947.31;4354377;40;97490;-76
2021/07/30 02:26:33;;;;;;;;;;;13.50;93.20;;;16.89;78.98;100940.31;4371160;40;97565;-76
2021/07/30 02:29:37;;;;;;;;;;;13.50;93.20;;;16.75;78.92;100934.44;4371651;40;97504;-76
2021/07/30 02:32:40;;;;;;;;;;;13.50;93.20;;;16.69;80.01;100941.19;4380815;39;97744;-76
2021/07/30 02:35:44;;;;;;;;;;;13.50;93.20;;;16.69;79.57;100952.00;4368800;39;97834;-76
2021/07/30 02:38:48;;;;;;;;;;;13.50;93.20;;;16.70;79.22;100937.34;4370203;40;97532;-76
2021/07/30 02:41:53;;;;;;;;;;;13.40;93.20;;;16.72;79.22;100940.50;4371764;39;98298;-75
2021/07/30 02:44:57;;;;;;;;;;;13.40;93.20;;;16.67;79.48;100941.53;4363119;40;97483;-75
2021/07/30 02:48:01;;;;;;;;;;;13.40;93.10;;;16.65;79.75;100948.41;4363846;40;96823;-75
2021/07/30 02:51:07;;;;;;;;;;;13.30;93.10;;;16.67;78.61;100943.44;4369564;39;98000;-75
2021/07/30 02:54:11;;;;;;;;;;;13.30;93.10;;;16.66;78.47;100937.22;4379449;39;97721;-75
2021/07/30 02:57:16;;;;;;;;;;;13.30;93.20;;;16.51;79.04;100937.09;4371570;40;97653;-75
2021/07/30 03:00:20;;;;;;;;;;;13.20;93.20;;;16.44;79.70;100939.56;4372996;40;97435;-76
2021/07/30 03:03:23;;;;;;;;;;;13.20;93.10;;;16.38;80.06;100936.31;4374198;40;97573;-76
2021/07/30 03:06:27;;;;;;;;;;;13.20;93.10;;;16.41;79.29;100934.84;4372312;39;97574;-76
2021/07/30 03:09:31;;;;;;;;;;;13.10;93.20;;;16.48;79.22;100927.75;4359772;39;97614;-75
2021/07/30 03:12:36;;;;;;;;;;;13.10;93.20;;;16.50;78.76;100927.41;4371642;39;97938;-76
2021/07/30 03:15:40;;;;;;;;;;;13.10;93.20;;;16.44;79.08;100915.22;4371347;40;96855;-76
2021/07/30 03:18:44;;;;;;;;;;;13.10;93.20;;;16.42;79.43;100920.19;4361635;40;97738;-76
2021/07/30 03:21:48;;;;;;;;;;;13.10;93.20;;;16.45;78.89;100922.22;4369858;40;96745;-76
2021/07/30 03:24:52;;;;;;;;;;;13.10;93.20;;;16.45;79.14;100922.22;4371237;39;97554;-75
2021/07/30 03:27:57;;;;;;;;;;;13.00;93.20;;;16.36;78.45;100916.94;4353130;40;97439;-75
2021/07/30 03:31:04;;;;;;;;;;;13.00;93.20;;;16.38;79.29;100914.69;4354472;40;98469;-76
2021/07/30 03:34:08;;;;;;;;;;;13.00;93.20;;;16.42;79.04;100914.78;4372511;39;99335;-75
2021/07/30 03:37:12;;;;;;;;;;;13.00;93.30;;;16.52;78.78;100917.06;4370995;40;97526;-76
2021/07/30 03:40:16;;;;;;;;;;;13.00;93.30;;;16.54;79.50;100915.59;4363278;40;98745;-76
2021/07/30 03:43:20;;;;;;;;;;;13.00;93.30;;;16.59;79.44;100914.59;4369521;40;98641;-76
2021/07/30 03:46:24;;;;;;;;;;;13.00;93.40;;;16.61;79.54;100909.63;4361751;40;99352;-76
2021/07/30 03:49:28;;;;;;;;;;;13.10;93.40;;;16.50;79.00;100905.75;4369292;40;97589;-76
2021/07/30 03:52:33;;;;;;;;;;;13.10;93.40;;;16.57;78.90;100914.13;4370282;40;97677;-76
2021/07/30 03:55:38;;;;;;;;;;;13.10;93.60;;;16.56;79.29;100915.25;4355237;40;97740;-76
2021/07/30 03:58:45;;;;;;;;;;;13.10;93.30;;;16.57;79.81;100914.13;4361827;40;96973;-75
2021/07/30 04:01:48;;;;;;;;;;;13.10;93.30;;;16.65;79.05;100907.81;4369575;40;98990;-76
2021/07/30 04:04:52;;;;;;;;;;;13.20;93.40;;;16.70;79.45;100905.69;4376900;39;98020;-77
2021/07/30 04:07:57;;;;;;;;;;;13.20;93.40;;;16.75;79.52;100901.94;4371713;40;96739;-77
2021/07/30 04:11:01;;;;;;;;;;;13.30;93.30;;;16.71;79.35;100909.97;4364466;40;97585;-77
2021/07/30 04:14:08;;;;;;;;;;;13.30;93.30;;;16.78;79.11;100903.97;4364108;40;97468;-77
2021/07/30 04:17:12;;;;;;;;;;;13.30;93.30;;;17.02;78.46;100912.09;4362661;40;98506;-77
2021/07/30 04:20:16;;;;;;;;;;;13.40;93.30;;;16.92;78.57;100912.56;4368885;40;97235;-77
2021/07/30 04:23:20;;;;;;;;;;;13.50;93.20;;;16.86;78.51;100903.88;4364403;40;97514;-77
2021/07/30 04:26:23;;;;;;;;;;;13.50;93.20;;;16.99;78.28;100902.75;4361193;40;96807;-77
2021/07/30 04:29:28;;;;;;;;;;;13.50;93.10;;;17.00;78.68;100900.81;4372632;40;97784;-78
2021/07/30 04:32:32;;;;;;;;;;;13.60;93.10;;;17.10;78.43;100900.34;4371943;39;96572;-77
2021/07/30 04:35:36;;;;;;;;;;;13.60;93.20;;;17.25;78.28;100902.38;4371418;40;97483;-77
2021/07/30 04:38:40;;;;;;;;;;;13.70;93.10;;;17.42;78.12;100905.63;4371870;39;96767;-77
2021/07/30 04:41:44;;;;;;;;;;;13.80;93.10;;;17.67;77.87;100899.78;4362712;39;96675;-78
2021/07/30 04:44:49;;;;;;;;;;;14.00;93.00;;;18.03;77.37;100898.84;4360760;40;98685;-77
2021/07/30 04:47:53;;;;;;;;;;;14.20;92.90;;;18.44;77.01;100903.81;4368083;40;98518;-77
2021/07/30 04:50:57;;;;;;;;;;;14.40;92.70;;;18.63;76.93;100910.16;4352972;40;98393;-78
2021/07/30 04:54:00;;;;;;;;;;;14.60;92.50;;;18.83;76.58;100911.03;4369989;40;97719;-77
2021/07/30 04:57:06;;;;;;;;;;;14.80;92.30;;;19.01;76.36;100910.28;4369246;40;97609;-77
2021/07/30 05:00:13;;;;;;;;;;;15.00;92.20;;;19.15;76.66;100919.59;4370150;40;97458;-77
2021/07/30 05:03:17;;;;;;;;;;;15.20;92.10;;;19.14;76.75;100909.81;4360523;40;97985;-77
2021/07/30 05:06:22;;;;;;;;;;;15.20;92.00;;;19.16;76.54;100917.63;4362517;40;97485;-78
2021/07/30 05:09:26;;;;;;;;;;;15.30;92.10;;;19.21;76.90;100911.91;4371802;40;96849;-77
2021/07/30 05:12:31;;;;;;;;;;;15.40;92.10;;;19.35;76.78;100906.81;4362953;39;97349;-77
2021/07/30 05:15:37;;;;;;;;;;;15.50;92.10;;;19.38;76.47;100906.91;4376477;39;97550;-77
2021/07/30 05:18:41;;;;;;;;;;;15.60;92.10;;;19.50;76.61;100908.69;4356069;40;96721;-77
2021/07/30 05:21:44;;;;;;;;;;;15.70;92.00;;;19.66;76.15;100898.53;4370290;40;98159;-77
2021/07/30 05:24:49;;;;;;;;;;;15.80;92.00;;;19.87;75.82;100901.69;4360503;39;96669;-77
2021/07/30 05:27:52;;;;;;;;;;;16.00;91.90;;;20.15;75.53;100900.31;4373781;40;97781;-77
2021/07/30 05:30:58;;;;;;;;;;;16.10;91.70;;;20.43;74.94;100908.97;4365331;40;98004;-77
2021/07/30 05:34:04;;;;;;;;;;;16.30;91.60;;;20.67;74.29;100905.88;4371660;40;97421;-77
2021/07/30 05:37:07;;;;;;;;;;;16.60;91.50;;;21.06;73.50;100907.31;4364715;40;97291;-77
2021/07/30 05:40:12;;;;;;;;;;;16.80;91.30;;;22.02;71.45;100898.06;4374455;39;97578;-77
2021/07/30 05:43:17;;;;;;;;;;;17.50;91.00;;;23.84;66.07;100907.63;4354055;40;97302;-77
2021/07/30 05:46:22;;;;;;;;;;;18.50;89.80;;;24.34;65.09;100907.38;4370979;40;98215;-77
2021/07/30 05:49:26;;;;;;;;;;;19.10;87.70;;;24.91;64.82;100893.28;4362734;40;97629;-78
2021/07/30 05:52:30;;;;;;;;;;;19.80;86.60;;;25.51;63.63;100893.94;4356336;40;96830;-77
2021/07/30 05:55:37;;;;;;;;;;;20.30;85.60;;;25.85;63.72;100884.81;4372411;39;97602;-77
2021/07/30 05:58:41;;;;;;;;;;;20.80;84.80;;;25.96;63.83;100882.00;4372993;39;97810;-77
2021/07/30 06:01:46;;;;;;;;;;;21.00;84.30;;;24.90;67.25;100888.97;4355017;40;97347;-78
2021/07/30 06:04:50;;;;;;;;;;;20.80;84.80;;;24.17;69.34;100889.72;4381241;39;97779;-78
2021/07/30 06:07:57;;;;;;;;;;;20.50;85.60;;;24.06;69.73;100891.69;4370939;39;97730;-77
2021/07/30 06:11:01;;;;;;;;;;;20.30;87.00;;;24.30;70.00;100890.91;4361075;40;97575;-77
2021/07/30 06:14:06;;;;;;;;;;;20.40;87.00;;;25.74;66.34;100888.75;4375434;39;97551;-78
2021/07/30 06:17:11;;;;;;;;;;;21.00;87.00;;;25.91;66.06;100885.19;4380573;39;97049;-77
2021/07/30 06:20:15;;;;;;;;;;;21.30;85.10;;;25.87;66.60;100882.44;4362899;39;98749;-78
2021/07/30 06:23:19;;;;;;;;;;;21.50;85.30;;;29.54;57.67;100886.06;4364006;40;97575;-78
2021/07/30 06:26:22;;;;;;;;;;;23.00;84.30;;;34.19;47.81;100873.56;4368879;39;97163;-76
2021/07/30 06:29:26;;;;;;;;;;;25.90;77.50;;;35.31;45.65;100869.56;4371109;39;98458;-75
2021/07/30 06:32:31;;;;;;;;;;;27.90;71.60;;;34.59;49.07;100866.72;4372597;39;97123;-78
2021/07/30 06:35:35;;;;;;;;;;;28.40;71.40;;;34.70;49.46;100863.50;4372982;40;96844;-76
2021/07/30 06:38:39;;;;;;;;;;;28.70;70.90;;;34.34;51.65;100857.84;4371083;39;97680;-76
2021/07/30 06:41:42;;;;;;;;;;;28.80;71.20;;;33.62;54.08;100849.16;4374525;39;97878;-76
2021/07/30 06:44:47;;;;;;;;;;;28.60;72.40;;;33.76;54.71;100848.63;4371444;39;98531;-76
2021/07/30 06:47:52;;;;;;;;;;;28.60;73.90;;;33.98;54.38;100852.13;4372172;40;97339;-76
2021/07/30 06:50:56;;;;;;;;;;;28.70;73.80;;;34.50;53.92;100849.97;4355392;40;98157;-76
2021/07/30 06:54:00;;;;;;;;;;;28.90;74.20;;;35.19;52.63;100833.50;4362101;40;96831;-76
2021/07/30 06:57:05;;;;;;;;;;;29.30;74.30;;;36.17;50.81;100840.81;4364095;39;99201;-77
2021/07/30 07:00:13;;;;;;;;;;;30.00;73.40;;;36.43;50.90;100831.47;4371788;40;97567;-76
2021/07/30 07:03:18;;;;;;;;;;;30.40;73.10;;;37.28;49.11;100833.47;4363109;40;96977;-76
2021/07/30 07:06:22;;;;;;;;;;;31.00;72.10;;;37.31;49.16;100833.25;4368925;40;97551;-76
2021/07/30 07:09:26;;;;;;;;;;;31.30;70.80;;;35.75;52.95;100839.25;4362939;40;99316;-76
2021/07/30 07:12:30;;;;;;;;;;;30.80;71.50;;;32.91;59.79;100841.88;4371957;39;97004;-77
2021/07/30 07:15:34;;;;;;;;;;;29.70;73.30;;;31.12;63.89;100840.38;4372231;40;96513;-76
2021/07/30 07:18:39;;;;;;;;;;;28.40;76.30;;;30.79;64.15;100838.88;4353175;40;96895;-76
2021/07/30 07:21:43;;;;;;;;;;;27.60;77.70;;;32.12;60.70;100834.97;4372287;39;96946;-76
2021/07/30 07:24:47;;;;;;;;;;;27.50;78.30;;;33.10;58.35;100821.31;4356187;39;96827;-76
2021/07/30 07:27:51;;;;;;;;;;;27.80;78.50;;;33.58;57.30;100819.94;4362873;40;98507;-76
2021/07/30 07:30:54;;;;;;;;;;;28.00;77.80;;;33.78;56.46;100823.16;4363396;39;98002;-77
2021/07/30 07:33:59;;;;;;;;;;;28.20;77.30;;;34.21;55.32;100827.34;4370759;40;97233;-76
2021/07/30 07:37:05;;;;;;;;;;;28.40;76.80;;;34.29;54.93;100828.63;4377974;39;97943;-76
2021/07/30 07:40:10;;;;;;;;;;;28.60;75.90;;;34.99;53.58;100827.63;4368457;40;97059;-76
2021/07/30 07:43:15;;;;;;;;;;;28.80;75.80;;;35.46;52.48;100825.06;4362830;40;97571;-76
2021/07/30 07:46:19;;;;;;;;;;;29.10;75.20;;;35.10;53.29;100813.97;4371604;39;97018;-76
2021/07/30 07:49:24;;;;;;;;;;;29.10;75.40;;;35.32;52.73;100825.75;4371384;40;97508;-76
2021/07/30 07:52:28;;;;;;;;;;;29.10;75.50;;;35.27;53.66;100812.41;4371673;39;97559;-76
2021/07/30 07:55:38;;;;;;;;;;;29.30;76.00;;;34.07;56.10;100807.63;4371395;40;97027;-76
2021/07/30 07:58:42;;;;;;;;;;;29.00;75.40;;;32.89;59.20;100812.97;4361162;40;97601;-76
2021/07/30 08:01:45;;;;;;;;;;;28.60;76.50;;;31.93;61.33;100824.91;4361950;40;97521;-77
2021/07/30 08:04:51;;;;;;;;;;;27.90;78.00;;;31.67;61.57;100825.34;4368492;39;96762;-76
2021/07/30 08:07:54;;;;;;;;;;;27.40;78.30;;;35.63;50.88;100829.84;4368997;40;97484;-77
2021/07/30 08:10:58;;;;;;;;;;;27.70;78.30;;;38.61;44.52;100824.63;4375989;39;100489;-77
2021/07/30 08:14:03;;;;;;;;;;;28.90;76.10;;;40.29;42.03;100816.75;4360927;39;97642;-78
2021/07/30 08:17:07;;;;;;;;;;;30.00;75.00;;;40.95;41.15;100823.41;4368140;40;97763;-77
2021/07/30 08:20:15;;;;;;;;;;;30.90;72.90;;;40.98;41.44;100816.00;4354219;40;97547;-77
2021/07/30 08:23:18;;;;;;;;;;;31.40;72.70;;;42.24;40.56;100808.31;4361273;40;97689;-77
2021/07/30 08:26:22;;;;;;;;;;;32.00;72.90;;;43.08;39.67;100804.59;4369754;40;97333;-77
2021/07/30 08:29:27;;;;;;;;;;;32.60;72.70;;;41.89;41.86;100805.31;4361261;40;97070;-77
2021/07/30 08:32:31;;;;;;;;;;;32.70;72.40;;;44.35;38.03;100804.19;4363045;39;97345;-76
2021/07/30 08:35:36;;;;;;;;;;;33.10;72.80;;;45.54;36.58;100805.84;4368898;39;97757;-76
2021/07/30 08:38:41;;;;;;;;;;;33.80;72.30;;;44.68;39.01;100792.44;4369704;40;96714;-77
2021/07/30 08:41:46;;;;;;;;;;;34.30;71.30;;;42.09;44.55;100784.53;4354434;40;97630;-77
2021/07/30 08:44:49;;;;;;;;;;;34.20;71.60;;;40.83;46.57;100790.13;4370889;39;96663;-77
2021/07/30 08:47:54;;;;;;;;;;;33.60;72.00;;;40.61;47.16;100782.41;4369591;39;97626;-76
2021/07/30 08:51:03;;;;;;;;;;;33.30;73.30;;;42.10;43.68;100780.44;4370212;39;97697;-76
2021/07/30 08:54:07;;;;;;;;;;;33.10;73.20;;;41.97;44.30;100778.16;4370677;40;97860;-76
2021/07/30 08:57:12;;;;;;;;;;;33.30;73.90;;;42.37;44.22;100777.53;4377127;39;97053;-76
2021/07/30 09:00:18;;;;;;;;;;;33.50;73.40;;;40.93;46.78;100783.78;4366484;39;97519;-76
2021/07/30 09:03:22;;;;;;;;;;;33.50;72.90;;;40.90;47.24;100772.81;4369321;39;98831;-77
2021/07/30 09:06:27;;;;;;;;;;;33.30;73.90;;;40.61;48.39;100771.16;4373378;39;97265;-77
2021/07/30 09:09:32;;;;;;;;;;;33.30;74.10;;;40.01;48.76;100768.84;4373056;39;96969;-77
2021/07/30 09:12:36;;;;;;;;;;;33.10;73.90;;;40.96;47.13;100759.50;4369683;40;97566;-77
2021/07/30 09:15:40;;;;;;;;;;;33.10;74.00;;;41.84;44.77;100758.22;4369857;40;97045;-76
2021/07/30 09:18:45;;;;;;;;;;;33.10;73.80;;;39.85;49.17;100755.47;4369291;40;98384;-76
2021/07/30 09:22:04;;;;;;;;;;;33.00;73.50;;;40.01;49.46;100754.03;4361217;40;97800;-77
2021/07/30 09:25:08;;;;;;;;;;;32.80;74.60;;;40.07;48.70;100749.22;4369920;40;98825;-73
2021/07/30 09:28:12;;;;;;;;;;;32.80;74.30;;;39.44;50.58;100750.56;4378280;39;97056;-72
2021/07/30 09:31:16;;;;;;;;;;;32.70;74.90;;;39.62;49.62;100753.00;4377201;39;96706;-71
2021/07/30 09:34:34;;;;;;;;;;;32.60;74.90;;;40.03;49.00;100737.47;4379399;39;97345;-72
2021/07/30 09:37:39;;;;;;;;;;;32.50;75.10;;;39.54;49.68;100740.69;4369236;40;96757;-73
2021/07/30 09:40:43;;;;;;;;;;;32.30;75.50;;;38.96;51.36;100743.25;4368460;40;97456;-74
2021/07/30 09:43:47;;;;;;;;;;;32.30;75.70;;;37.46;54.27;100741.78;4370359;40;97551;-73
2021/07/30 09:47:07;;;;;;;;;;;32.00;75.40;;;37.06;55.69;100740.84;4371764;39;97119;-72
2021/07/30 09:50:12;;;;;;;;;;;31.70;76.10;;;36.36;57.00;100741.75;4369191;40;97469;-72
2021/07/30 09:53:18;;;;;;;;;;;31.40;76.20;;;36.15;57.80;100737.25;4367783;40;97554;-73
2021/07/30 09:56:23;;;;;;;;;;;31.00;77.80;;;36.96;55.87;100728.94;4369397;39;99470;-73
2021/07/30 09:59:28;;;;;;;;;;;30.90;77.80;;;36.38;57.42;100722.50;4368356;39;97497;-73
2021/07/30 10:02:36;;;;;;;;;;;30.80;78.10;;;36.89;56.32;100726.53;4369286;40;97621;-72
2021/07/30 10:05:41;;;;;;;;;;;30.90;78.60;;;36.96;56.05;100717.00;4368624;40;97620;-73
2021/07/30 10:08:47;;;;;;;;;;;30.90;78.80;;;36.28;58.32;100726.59;4369929;40;96720;-73
2021/07/30 10:11:51;;;;;;;;;;;30.90;78.60;;;35.78;59.73;100721.97;4368595;40;97575;-73
2021/07/30 10:14:56;;;;;;;;;;;30.80;79.40;;;35.26;60.82;100714.13;4369362;40;97853;-74
2021/07/30 10:18:04;;;;;;;;;;;30.60;78.90;;;34.79;61.24;100710.34;4360846;40;96826;-74
2021/07/30 10:21:08;;;;;;;;;;;30.30;78.90;;;34.43;62.12;100696.44;4370783;40;97901;-74
2021/07/30 10:24:15;;;;;;;;;;;30.10;79.30;;;34.28;62.22;100693.50;4370973;39;97625;-72
2021/07/30 10:27:21;;;;;;;;;;;29.90;79.80;;;34.25;62.25;100694.44;4368571;40;97379;-72
2021/07/30 10:30:25;;;;;;;;;;;29.70;80.40;;;34.84;61.44;100690.22;4368914;40;96745;-72
2021/07/30 10:33:49;;;;;;;;;;;29.70;81.00;;;35.61;59.83;100690.13;4427367;39;96896;-71
2021/07/30 10:36:53;;;;;;;;;;;30.10;80.90;;;35.79;59.86;100680.88;4410959;39;98009;-75
2021/07/30 10:40:19;;;;;;;;;;;30.40;80.10;;;35.68;60.06;100683.44;4406490;39;97657;-75
2021/07/30 10:43:27;;;;;;;;;;;30.50;80.00;;;35.78;60.45;100670.97;4413169;39;97634;-75
2021/07/30 10:46:31;;;;;;;;;;;30.60;80.10;;;35.77;60.01;100666.63;4408745;39;96986;-75
2021/07/30 10:49:43;;;;;;;;;;;30.60;80.70;;;35.45;60.49;100675.78;4404107;39;97383;-75
2021/07/30 10:52:46;;;;;;;;;;;30.60;79.30;;;34.93;62.01;100665.13;4393780;39;99170;-75
2021/07/30 10:55:50;;;;;;;;;;;30.40;79.70;;;34.70;62.50;100658.22;4410553;39;97078;-75
2021/07/30 10:59:05;;;;;;;;;;;30.20;80.20;;;34.77;62.62;100654.34;4410423;39;97801;-75
2021/07/30 11:02:09;;;;;;;;;;;30.20;80.50;;;34.26;63.24;100659.81;4411853;39;97617;-75
2021/07/30 11:05:14;;;;;;;;;;;30.00;80.20;;;34.07;63.03;100653.88;4395915;39;99007;-75
2021/07/30 11:08:18;;;;;;;;;;;29.80;80.20;;;33.95;63.39;100658.38;4395053;39;97617;-72
2021/07/30 11:11:47;;;;;;;;;;;29.60;80.30;;;34.10;63.35;100641.84;4408370;39;97636;-73
2021/07/30 11:14:51;;;;;;;;;;;29.60;81.20;;;34.17;63.50;100645.88;4397195;39;97617;-73
2021/07/30 11:18:00;;;;;;;;;;;29.60;81.60;;;33.83;64.29;100648.16;4409546;39;97124;-72
2021/07/30 11:21:07;;;;;;;;;;;29.50;81.50;;;34.17;63.89;100637.53;4417099;39;96780;-72
2021/07/30 11:24:11;;;;;;;;;;;29.50;81.80;;;34.52;63.02;100632.41;4400736;39;97581;-72
2021/07/30 11:27:17;;;;;;;;;;;29.70;82.10;;;34.73;62.05;100635.00;4414320;39;97557;-71
2021/07/30 11:30:21;;;;;;;;;;;29.80;81.30;;;34.91;62.11;100632.19;4411805;39;97923;-72
2021/07/30 11:33:25;;;;;;;;;;;30.00;81.60;;;34.64;62.71;100629.44;4411882;39;98963;-71
2021/07/30 11:36:29;;;;;;;;;;;30.00;81.60;;;35.09;61.96;100626.50;4406485;39;97522;-72
2021/07/30 11:39:38;;;;;;;;;;;30.10;81.40;;;35.30;61.96;100631.09;4408727;39;98841;-72
2021/07/30 11:42:42;;;;;;;;;;;30.30;81.00;;;34.94;62.46;100622.09;4407618;39;97155;-72
2021/07/30 11:45:46;;;;;;;;;;;30.40;80.50;;;34.95;63.26;100627.22;4398343;39;97580;-73
2021/07/30 11:48:50;;;;;;;;;;;30.40;80.90;;;35.01;62.57;100619.75;4394016;39;97835;-71
2021/07/30 11:51:55;;;;;;;;;;;30.40;80.70;;;34.55;63.63;100609.19;4399257;39;96958;-73
2021/07/30 11:55:16;;;;;;;;;;;30.30;81.00;;;34.36;64.77;100621.59;4400125;39;97014;-72
2021/07/30 11:58:20;;;;;;;;;;;30.10;81.50;;;34.34;63.89;100619.28;4399745;39;96900;-72
2021/07/30 12:01:24;;;;;;;;;;;30.00;81.30;;;34.43;63.89;100608.13;4398897;39;97566;-71
2021/07/30 12:04:28;;;;;;;;;;;30.00;81.70;;;34.61;63.50;100616.47;4399501;39;97345;-72
2021/07/30 12:07:36;;;;;;;;;;;30.10;81.50;;;34.48;63.55;100610.28;4398492;39;97400;-71
2021/07/30 12:10:41;;;;;;;;;;;30.10;80.90;;;34.18;63.68;100611.25;4401544;39;97483;-71
2021/07/30 12:13:45;;;;;;;;;;;30.00;80.30;;;34.32;63.30;100607.06;4387865;39;98671;-72
2021/07/30 12:16:49;;;;;;;;;;;29.90;80.70;;;34.02;64.83;100616.31;4399609;39;97499;-71
2021/07/30 12:19:59;;;;;;;;;;;29.90;81.20;;;33.63;65.77;100602.53;4392743;39;97225;-71
2021/07/30 12:23:09;;;;;;;;;;;29.70;81.60;;;33.60;65.92;100611.78;4402082;39;98483;-71
2021/07/30 12:26:35;;;;;;;;;;;29.60;82.00;;;33.66;65.82;100601.63;4398191;39;97522;-70
2021/07/30 12:29:42;;;;;;;;;;;29.50;82.10;;;34.12;63.93;100592.06;4400786;39;98082;-71
2021/07/30 12:32:46;;;;;;;;;;;29.70;81.70;;;34.48;63.41;100595.63;4399298;39;97771;-71
2021/07/30 12:35:50;;;;;;;;;;;29.90;81.30;;;34.57;63.70;100587.22;4395887;39;97504;-71
2021/07/30 12:38:57;;;;;;;;;;;30.10;81.50;;;34.63;63.46;100585.34;4398348;39;97193;-71
2021/07/30 12:42:01;;;;;;;;;;;30.10;81.20;;;34.01;64.95;100573.06;4401385;39;97174;-72
2021/07/30 12:45:12;;;;;;;;;;;30.00;81.20;;;33.78;65.77;100564.59;4399645;39;97171;-72
2021/07/30 12:48:18;;;;;;;;;;;29.90;81.80;;;33.62;65.81;100562.84;4389726;39;97462;-71
2021/07/30 12:51:26;;;;;;;;;;;29.70;81.90;;;34.43;64.44;100558.03;4396530;39;97048;-71
2021/07/30 12:54:36;;;;;;;;;;;29.80;82.50;;;34.78;63.69;100559.19;4398581;39;97664;-71
2021/07/30 12:57:55;;;;;;;;;;;30.10;82.30;;;34.56;64.59;100546.72;4399294;39;96809;-71
2021/07/30 13:01:01;;;;;;;;;;;30.10;82.40;;;34.33;65.92;100539.81;4395871;39;97518;-71
2021/07/30 13:04:08;;;;;;;;;;;30.10;82.60;;;34.13;66.07;100540.75;4388497;39;97362;-72
2021/07/30 13:07:12;;;;;;;;;;;30.00;82.50;;;33.87;66.80;100534.78;4389852;39;96829;-71
2021/07/30 13:10:18;;;;;;;;;;;29.90;82.90;;;33.85;66.29;100534.47;4400112;39;97118;-71
2021/07/30 13:13:26;;;;;;;;;;;29.80;82.90;;;33.98;65.76;100529.50;4406399;39;97512;-71
2021/07/30 13:16:30;;;;;;;;;;;29.70;82.70;;;33.77;66.88;100526.91;4397222;39;97546;-72
2021/07/30 13:19:34;;;;;;;;;;;29.70;82.90;;;34.23;65.43;100523.63;4404805;39;96723;-71
2021/07/30 13:22:38;;;;;;;;;;;29.70;83.60;;;34.63;64.62;100516.53;4393160;39;97533;-72
2021/07/30 13:25:43;;;;;;;;;;;30.00;83.20;;;34.11;66.21;100524.56;4395684;39;96749;-71
2021/07/30 13:28:47;;;;;;;;;;;29.90;82.90;;;33.78;66.99;100504.19;4396254;39;97678;-71
2021/07/30 13:31:51;;;;;;;;;;;29.80;83.00;;;33.56;66.89;100505.53;4374883;39;97095;-71
2021/07/30 13:34:55;;;;;;;;;;;29.60;83.00;;;33.46;67.03;100495.66;4385501;39;97452;-71
2021/07/30 13:38:06;;;;;;;;;;;29.50;83.30;;;33.30;67.34;100490.41;4396709;39;96763;-71
2021/07/30 13:41:13;;;;;;;;;;;29.40;83.30;;;33.17;67.33;100489.75;4393235;39;97166;-71
2021/07/30 13:44:17;;;;;;;;;;;29.20;83.70;;;32.76;67.94;100491.03;4397860;39;97284;-72
2021/07/30 13:47:21;;;;;;;;;;;29.10;83.30;;;32.25;68.58;100478.00;4391046;39;97250;-72
2021/07/30 13:50:24;;;;;;;;;;;28.80;83.00;;;31.81;69.60;100476.44;4397140;39;100860;-71
2021/07/30 13:53:28;;;;;;;;;;;28.40;83.80;;;32.10;69.39;100470.63;4399879;39;96784;-72
2021/07/30 13:56:33;;;;;;;;;;;28.30;84.90;;;32.23;68.90;100474.13;4401261;39;97502;-70
2021/07/30 13:59:38;;;;;;;;;;;28.30;85.30;;;32.21;68.85;100462.69;4391322;39;97064;-72
2021/07/30 14:02:42;;;;;;;;;;;28.20;85.30;;;32.60;67.80;100468.28;4401229;39;96758;-72